Time;durP1;ratioP1;P1;durP2;ratioP2;P2;SDS_P1;SDS_P2;PMS_P1;PMS_P2;Temp;Humidity;BMP_temperature;BMP_pressure;BME280_temperature;BME280_humidity;BME280_pressure;Samples;Min_cycle;Max_cycle;Signal;HPM_P1;HPM_P2
2022/12/13 00:01:29;;;;;;;16.30;10.07;;;;;;;3.85;52.04;101156.28;5060747;28;20053;-69
2022/12/13 00:03:58;;;;;;;18.85;10.35;;;;;;;3.82;51.71;101162.75;5044869;28;20046;-69
2022/12/13 00:06:26;;;;;;;18.80;10.63;;;;;;;3.81;51.87;101154.94;5060606;28;20190;-69
2022/12/13 00:08:54;;;;;;;16.58;9.27;;;;;;;3.80;51.54;101162.09;5055932;28;20164;-69
2022/12/13 00:11:22;;;;;;;17.10;10.32;;;;;;;3.81;52.18;101158.44;5056423;28;20049;-70
2022/12/13 00:13:52;;;;;;;15.77;9.05;;;;;;;3.78;51.47;101157.94;5064215;28;20044;-69
2022/12/13 00:16:22;;;;;;;19.88;10.15;;;;;;;3.76;51.47;101152.81;5059294;28;20505;-70
2022/12/13 00:18:51;;;;;;;20.45;10.80;;;;;;;3.76;52.29;101150.13;5053597;28;20041;-70
2022/12/13 00:21:21;;;;;;;20.08;10.32;;;;;;;3.75;51.86;101137.84;5049564;28;20064;-71
2022/12/13 00:23:49;;;;;;;18.63;9.98;;;;;;;3.74;52.03;101143.34;5060722;28;20037;-69
2022/12/13 00:26:22;;;;;;;16.15;9.57;;;;;;;3.73;51.92;101142.50;5060694;28;20072;-70
2022/12/13 00:28:52;;;;;;;18.20;9.73;;;;;;;3.73;51.36;101137.19;5064254;28;20056;-70
2022/12/13 00:31:22;;;;;;;16.65;10.02;;;;;;;3.71;52.36;101138.34;5059107;28;20502;-69
2022/12/13 00:34:10;;;;;;;21.38;10.88;;;;;;;3.70;51.39;101142.84;5060510;28;20041;-67
2022/12/13 00:36:37;;;;;;;18.10;10.13;;;;;;;3.68;51.87;101139.53;5058575;28;20049;-71
2022/12/13 00:39:05;;;;;;;19.80;10.32;;;;;;;3.69;51.29;101140.34;5045233;28;20053;-69
2022/12/13 00:41:35;;;;;;;19.80;10.65;;;;;;;3.69;51.46;101143.00;5060180;28;20045;-70
2022/12/13 00:44:05;;;;;;;18.33;11.27;;;;;;;3.70;51.54;101150.00;5059280;28;20036;-70
2022/12/13 00:46:32;;;;;;;19.77;10.65;;;;;;;3.67;51.65;101137.03;5064152;28;20056;-69
2022/12/13 00:49:01;;;;;;;20.08;11.13;;;;;;;3.66;52.23;101140.69;5050393;28;20132;-69
2022/12/13 00:51:31;;;;;;;17.25;10.07;;;;;;;3.66;52.22;101138.03;5056789;28;20418;-70
2022/12/13 00:54:00;;;;;;;17.70;10.30;;;;;;;3.64;51.75;101135.56;5051151;28;20212;-70
2022/12/13 00:56:29;;;;;;;15.98;10.18;;;;;;;3.64;51.13;101129.41;5063012;28;20076;-70
2022/12/13 00:58:58;;;;;;;18.35;10.18;;;;;;;3.63;51.97;101127.75;5058612;28;20050;-69
2022/12/13 01:01:29;;;;;;;21.85;11.20;;;;;;;3.62;51.22;101126.09;5056974;28;20059;-69
2022/12/13 01:04:00;;;;;;;19.60;10.43;;;;;;;3.60;51.98;101135.06;5054466;28;20127;-69
2022/12/13 01:06:29;;;;;;;16.30;10.20;;;;;;;3.60;52.07;101126.25;5062160;28;20534;-71
2022/12/13 01:08:57;;;;;;;20.17;10.30;;;;;;;3.58;51.18;101129.09;5063698;28;20068;-69
2022/12/13 01:11:25;;;;;;;19.67;10.85;;;;;;;3.56;51.33;101122.28;5055059;28;20045;-70
2022/12/13 01:13:53;;;;;;;17.90;9.80;;;;;;;3.55;51.20;101123.28;5052292;28;20045;-70
2022/12/13 01:16:21;;;;;;;18.50;10.60;;;;;;;3.55;51.56;101124.09;5058334;28;20077;-71
2022/12/13 01:18:50;;;;;;;17.52;10.25;;;;;;;3.56;51.92;101124.94;5051201;28;20045;-69
2022/12/13 01:21:20;;;;;;;18.30;10.02;;;;;;;3.53;52.04;101122.63;5057921;28;20059;-69
2022/12/13 01:23:49;;;;;;;18.98;10.40;;;;;;;3.53;51.66;101122.63;5062986;28;20580;-70
2022/12/13 01:26:19;;;;;;;21.50;10.35;;;;;;;3.51;51.46;101114.81;5058293;28;20050;-70
2022/12/13 01:28:48;;;;;;;20.88;10.43;;;;;;;3.51;51.89;101117.47;5056283;28;20053;-70
2022/12/13 01:31:18;;;;;;;21.08;10.95;;;;;;;3.52;51.33;101118.31;5056982;28;20136;-70
2022/12/13 01:33:47;;;;;;;22.55;11.20;;;;;;;3.51;51.89;101121.97;5053851;28;20049;-70
2022/12/13 01:36:18;;;;;;;16.73;10.20;;;;;;;3.52;51.30;101127.09;5053126;28;20052;-70
2022/12/13 01:38:54;;;;;;;20.55;10.75;;;;;;;3.51;51.79;101124.63;5053345;28;20107;-69
2022/12/13 01:41:26;;;;;;;17.63;10.20;;;;;;;3.49;51.76;101124.78;5061693;28;20057;-71
2022/12/13 01:43:59;;;;;;;17.10;10.18;;;;;;;3.49;51.94;101132.75;5060460;28;20061;-69
2022/12/13 01:46:28;;;;;;;19.38;11.60;;;;;;;3.47;51.35;101133.91;5055563;28;20395;-70
2022/12/13 01:49:01;;;;;;;22.67;11.57;;;;;;;3.48;51.17;101136.41;5063369;28;20061;-69
2022/12/13 01:51:35;;;;;;;19.17;9.77;;;;;;;3.47;51.40;101141.88;5052000;28;20053;-69
2022/12/13 01:54:06;;;;;;;18.95;10.65;;;;;;;3.44;51.73;101131.63;5055510;28;20080;-70
2022/12/13 01:56:38;;;;;;;23.05;10.57;;;;;;;3.45;50.86;101133.28;5057794;28;20100;-70
2022/12/13 01:59:09;;;;;;;17.60;10.38;;;;;;;3.43;51.07;101135.28;5067177;28;20049;-69
2022/12/13 02:01:37;;;;;;;24.42;10.82;;;;;;;3.43;50.88;101137.94;5064821;28;20056;-71
2022/12/13 02:04:06;;;;;;;17.65;10.45;;;;;;;3.43;51.46;101128.16;5062864;28;20382;-71
2022/12/13 02:06:37;;;;;;;21.70;10.48;;;;;;;3.42;50.95;101129.16;5060463;28;20101;-71
2022/12/13 02:09:07;;;;;;;21.20;11.25;;;;;;;3.41;51.46;101119.50;5054192;28;20060;-69
2022/12/13 02:11:36;;;;;;;21.65;11.48;;;;;;;3.40;51.26;101127.66;5062358;28;20053;-71
2022/12/13 02:14:05;;;;;;;24.00;10.82;;;;;;;3.40;51.51;101132.97;5066487;28;20053;-69
2022/12/13 02:16:44;;;;;;;21.10;11.20;;;;;;;3.39;51.25;101126.00;5066116;28;20048;-71
2022/12/13 02:19:47;;;;;;;21.00;11.38;;;;;;;3.38;51.25;101129.66;5063618;28;20108;-67
2022/12/13 02:22:40;;;;;;;18.95;10.65;;;;;;;3.36;51.50;101132.47;5059722;28;20139;-69
2022/12/13 02:25:30;;;;;;;21.48;10.48;;;;;;;3.37;51.56;101125.34;5065201;28;20049;-70
2022/12/13 02:28:15;;;;;;;20.52;10.70;;;;;;;3.36;52.08;101123.66;5062429;28;20109;-70
2022/12/13 02:31:06;;;;;;;19.08;10.90;;;;;;;3.35;52.02;101127.31;5063728;28;20053;-70
2022/12/13 02:33:42;;;;;;;25.50;12.67;;;;;;;3.34;51.84;101137.13;5065318;28;20048;-69
2022/12/13 02:36:15;;;;;;;23.40;11.68;;;;;;;3.33;51.90;101135.47;5057431;28;20043;-69
2022/12/13 02:38:52;;;;;;;19.52;10.35;;;;;;;3.33;51.87;101130.16;5073800;28;20044;-69
2022/12/13 02:41:25;;;;;;;18.67;11.18;;;;;;;3.33;51.54;101127.50;5062813;28;20049;-69
2022/12/13 02:43:59;;;;;;;20.55;11.07;;;;;;;3.31;51.92;101116.22;5058902;28;20064;-69
2022/12/13 02:46:32;;;;;;;19.52;10.75;;;;;;;3.30;51.88;101119.03;5062385;28;20046;-69
2022/12/13 02:49:00;;;;;;;24.30;11.18;;;;;;;3.28;51.99;101119.19;5055689;28;20049;-69
2022/12/13 02:51:29;;;;;;;20.92;11.40;;;;;;;3.26;51.78;101107.91;5060649;28;20470;-67
2022/12/13 02:53:57;;;;;;;22.02;11.07;;;;;;;3.26;51.38;101111.41;5065883;28;20561;-69
2022/12/13 02:56:25;;;;;;;21.50;11.02;;;;;;;3.25;51.33;101106.25;5065504;28;20227;-70
2022/12/13 02:58:56;;;;;;;18.73;11.30;;;;;;;3.24;51.71;101104.59;5059597;28;20064;-69
2022/12/13 03:01:41;;;;;;;19.33;12.32;;;;;;;3.23;52.23;101102.94;5060712;28;20048;-70
2022/12/13 03:04:20;;;;;;;21.70;10.45;;;;;;;3.22;52.30;101093.31;5047161;28;20378;-66
2022/12/13 03:07:04;;;;;;;21.80;10.75;;;;;;;3.22;51.94;101093.31;5058606;28;20041;-70
2022/12/13 03:09:44;;;;;;;19.50;10.80;;;;;;;3.20;51.94;101101.44;5050289;28;20057;-70
2022/12/13 03:15:16;;;;;;;20.85;11.10;;;;;;;3.18;52.39;101105.25;5048774;28;20049;-70
2022/12/13 03:17:50;;;;;;;20.27;10.80;;;;;;;3.16;51.57;101101.94;5059028;28;20049;-70
2022/12/13 03:20:23;;;;;;;19.08;11.02;;;;;;;3.15;51.66;101108.25;5058877;28;20109;-69
2022/12/13 03:22:51;;;;;;;22.08;11.32;;;;;;;3.14;51.55;101099.47;5064302;28;20492;-71
2022/12/13 03:25:19;;;;;;;23.88;12.27;;;;;;;3.14;52.20;101103.94;5060451;28;20046;-69
2022/12/13 03:27:59;;;;;;;20.45;11.80;;;;;;;3.09;51.77;101101.78;5050298;28;20049;-69
2022/12/13 03:30:28;;;;;;;18.67;10.88;;;;;;;3.11;51.65;101097.13;5055494;28;20064;-69
2022/12/13 03:32:57;;;;;;;22.90;11.93;;;;;;;3.11;52.16;101097.13;5052720;28;20159;-70
2022/12/13 03:35:25;;;;;;;20.23;11.77;;;;;;;3.10;52.09;101099.97;5044773;28;20105;-70
2022/12/13 03:38:10;;;;;;;20.63;11.63;;;;;;;3.07;52.36;101095.81;5063247;28;20243;-70
2022/12/13 03:40:39;;;;;;;20.38;10.70;;;;;;;3.08;52.07;101097.47;5057769;28;20049;-70
2022/12/13 03:43:06;;;;;;;24.40;12.15;;;;;;;3.06;52.35;101091.50;5058327;28;20048;-69
2022/12/13 03:45:34;;;;;;;21.63;11.38;;;;;;;3.04;51.56;101098.81;5064669;28;20072;-70
2022/12/13 03:48:03;;;;;;;24.25;12.13;;;;;;;3.05;51.54;101094.31;5070355;28;20052;-69
2022/12/13 03:50:31;;;;;;;20.55;11.60;;;;;;;3.05;51.77;101099.63;5059890;28;20160;-70
2022/12/13 03:52:59;;;;;;;23.80;11.20;;;;;;;3.04;52.00;101097.97;5068690;28;20056;-69
2022/12/13 03:55:27;;;;;;;18.98;11.25;;;;;;;3.03;52.14;101093.66;5069426;28;20063;-70
2022/12/13 03:57:55;;;;;;;21.23;11.45;;;;;;;3.01;51.40;101087.69;5064706;28;20045;-70
2022/12/13 04:00:23;;;;;;;20.77;11.38;;;;;;;3.01;51.40;101098.31;5061619;28;20103;-70
2022/12/13 04:02:51;;;;;;;21.90;11.23;;;;;;;2.98;51.74;101088.84;5062482;28;20055;-69
2022/12/13 04:05:20;;;;;;;20.50;11.05;;;;;;;2.95;51.68;101083.88;5062478;28;20467;-70
2022/12/13 04:07:48;;;;;;;20.83;12.85;;;;;;;2.97;52.01;101087.19;5065046;28;20051;-69
2022/12/13 04:10:16;;;;;;;24.60;12.07;;;;;;;2.96;51.36;101077.56;5044690;28;20116;-70
2022/12/13 04:15:47;;;;;;;21.23;10.82;;;;;;;2.96;51.59;101079.38;5064036;28;20049;-70
2022/12/13 04:18:16;;;;;;;19.27;11.05;;;;;;;2.94;51.76;101076.91;5051570;28;20071;-70
2022/12/13 04:20:46;;;;;;;20.70;11.85;;;;;;;2.94;51.98;101076.91;5059619;28;20041;-70
2022/12/13 04:23:14;;;;;;;18.40;11.70;;;;;;;2.93;52.02;101077.91;5056901;28;20049;-70
2022/12/13 04:25:43;;;;;;;21.52;11.38;;;;;;;2.92;52.16;101073.59;5061346;28;20061;-70
2022/12/13 04:28:11;;;;;;;21.08;11.52;;;;;;;2.89;51.62;101072.09;5058988;28;20105;-71
2022/12/13 04:30:48;;;;;;;23.27;11.70;;;;;;;2.89;52.26;101073.91;5054515;28;20049;-70
2022/12/13 04:33:20;;;;;;;21.40;11.80;;;;;;;2.89;51.99;101074.75;5061476;28;20061;-70
2022/12/13 04:35:51;;;;;;;20.08;10.77;;;;;;;2.89;52.15;101076.56;5057464;28;20254;-69
2022/12/13 04:38:19;;;;;;;17.13;10.55;;;;;;;2.87;51.99;101067.94;5058128;28;20049;-70
2022/12/13 04:40:46;;;;;;;20.75;11.48;;;;;;;2.87;51.75;101071.44;5061132;28;20130;-70
2022/12/13 04:43:14;;;;;;;17.25;10.70;;;;;;;2.85;51.80;101067.28;5053902;28;20113;-70
2022/12/13 04:45:42;;;;;;;23.13;11.52;;;;;;;2.84;51.96;101068.28;5059914;28;20049;-69
2022/12/13 04:48:10;;;;;;;22.27;11.88;;;;;;;2.83;51.97;101062.13;5056920;28;20049;-70
2022/12/13 04:50:37;;;;;;;23.40;11.52;;;;;;;2.82;52.16;101055.16;5058157;28;20053;-69
2022/12/13 04:53:06;;;;;;;23.50;12.30;;;;;;;2.84;52.32;101057.66;5057296;28;20057;-69
2022/12/13 04:55:34;;;;;;;21.67;10.98;;;;;;;2.80;52.18;101049.19;5057729;28;20051;-71
2022/12/13 04:58:02;;;;;;;19.20;11.13;;;;;;;2.81;51.56;101052.69;5061522;28;20227;-70
2022/12/13 05:00:29;;;;;;;20.33;10.88;;;;;;;2.80;52.09;101053.69;5053351;28;20079;-70
2022/12/13 05:02:57;;;;;;;20.20;12.23;;;;;;;2.78;52.20;101048.53;5058879;28;20057;-70
2022/12/13 05:05:25;;;;;;;26.38;12.20;;;;;;;2.78;51.91;101060.97;5057610;28;20056;-69
2022/12/13 05:07:52;;;;;;;20.23;11.15;;;;;;;2.76;52.59;101052.34;5059035;28;20060;-70
2022/12/13 05:10:22;;;;;;;21.60;11.52;;;;;;;2.76;51.97;101052.34;5062455;28;20057;-70
2022/12/13 05:13:05;;;;;;;20.77;11.80;;;;;;;2.73;52.20;101050.03;5051797;28;20044;-70
2022/12/13 05:15:33;;;;;;;22.60;11.63;;;;;;;2.72;52.03;101049.19;5051320;28;20056;-69
2022/12/13 05:18:01;;;;;;;23.90;11.73;;;;;;;2.71;52.56;101046.72;5063668;28;20604;-70
2022/12/13 05:20:38;;;;;;;24.38;12.45;;;;;;;2.71;52.45;101057.31;5049443;28;20080;-69
2022/12/13 05:23:06;;;;;;;20.20;11.32;;;;;;;2.71;51.94;101046.72;5062833;28;20108;-69
2022/12/13 05:25:35;;;;;;;22.33;11.02;;;;;;;2.70;52.70;101042.41;5051344;28;20045;-70
2022/12/13 05:28:04;;;;;;;21.60;11.73;;;;;;;2.70;52.46;101045.06;5062568;28;20053;-70
2022/12/13 05:30:52;;;;;;;20.02;10.57;;;;;;;2.70;52.53;101045.06;5063043;28;20053;-70
2022/12/13 05:33:20;;;;;;;20.92;11.75;;;;;;;2.70;52.61;101047.72;5060956;28;20108;-69
2022/12/13 05:35:48;;;;;;;21.63;11.23;;;;;;;2.67;52.19;101043.56;5054945;28;20061;-69
2022/12/13 05:38:16;;;;;;;22.55;11.43;;;;;;;2.67;52.12;101043.56;5063431;28;20051;-69
2022/12/13 05:40:44;;;;;;;23.13;10.98;;;;;;;2.67;52.22;101045.38;5055946;28;20049;-69
2022/12/13 05:43:12;;;;;;;21.15;10.95;;;;;;;2.67;52.06;101056.00;5055753;28;20053;-69
2022/12/13 05:45:49;;;;;;;20.27;11.77;;;;;;;2.66;52.37;101043.72;5066156;28;20045;-68
2022/12/13 05:48:17;;;;;;;23.13;12.63;;;;;;;2.64;52.12;101038.59;5064029;28;20049;-71
2022/12/13 05:50:51;;;;;;;24.60;11.73;;;;;;;2.61;52.32;101036.25;5064664;28;20158;-70
2022/12/13 05:53:38;;;;;;;25.83;11.90;;;;;;;2.61;52.48;101037.09;5059733;28;20052;-71
2022/12/13 05:56:09;;;;;;;22.42;11.25;;;;;;;2.60;52.42;101040.75;5053686;28;20076;-71
2022/12/13 05:58:38;;;;;;;20.23;11.73;;;;;;;2.60;52.41;101037.25;5060748;28;20061;-70
2022/12/13 06:01:07;;;;;;;21.73;11.35;;;;;;;2.57;52.07;101042.91;5060714;28;20048;-70
2022/12/13 06:03:34;;;;;;;20.55;11.07;;;;;;;2.57;52.25;101033.13;5067008;28;20075;-70
2022/12/13 06:06:03;;;;;;;20.77;11.75;;;;;;;2.63;51.51;101041.41;5065492;28;20049;-70
2022/12/13 06:08:31;;;;;;;22.58;11.90;;;;;;;2.73;51.93;101039.41;5065443;28;20132;-71
2022/12/13 06:11:01;;;;;;;23.10;11.70;;;;;;;2.82;50.94;101049.88;5060728;28;20136;-70
2022/12/13 06:13:41;;;;;;;27.05;12.23;;;;;;;2.96;51.34;101048.38;5065305;28;20056;-70
2022/12/13 06:16:12;;;;;;;23.17;11.25;;;;;;;3.03;50.46;101046.69;5064192;28;20072;-70
2022/12/13 06:18:51;;;;;;;21.85;12.27;;;;;;;2.98;50.47;101017.16;5059609;28;20045;-70
2022/12/13 06:21:27;;;;;;;;;;;;;;;3.25;50.05;101039.84;5059675;28;20080;-69
2022/12/13 06:24:10;;;;;;;19.65;10.55;;;;;;;3.40;49.53;101047.97;5060642;28;19963;-68
2022/12/13 06:26:38;;;;;;;20.92;11.27;;;;;;;3.53;49.42;101037.59;5065813;28;20561;-67
2022/12/13 06:29:07;;;;;;;19.98;11.02;;;;;;;3.65;48.79;101036.22;5061313;28;20130;-70
2022/12/13 06:31:35;;;;;;;21.80;12.32;;;;;;;3.79;49.24;101039.97;5066382;28;20053;-70
2022/12/13 06:34:03;;;;;;;22.48;12.27;;;;;;;3.91;48.01;101038.59;5057820;28;20053;-67
2022/12/13 06:36:42;;;;;;;22.08;11.35;;;;;;;4.02;47.87;101038.22;5057752;28;20083;-67
2022/12/13 06:39:15;;;;;;;21.18;11.86;;;;;;;4.11;48.25;101044.31;4888120;28;10000596;-66
2022/12/13 06:41:43;;;;;;;21.35;12.00;;;;;;;4.16;47.76;101037.47;5048198;28;20274;-67
2022/12/13 06:44:12;;;;;;;19.58;12.00;;;;;;;4.21;47.91;101045.75;5057896;28;20452;-68
2022/12/13 06:46:40;;;;;;;21.20;11.23;;;;;;;4.22;48.08;101039.44;5062701;28;20049;-65
2022/12/13 06:49:08;;;;;;;23.42;12.68;;;;;;;4.26;47.43;101039.91;5061000;28;20044;-65
2022/12/13 06:51:35;;;;;;;22.05;11.60;;;;;;;4.29;47.58;101041.38;5058619;28;20366;-67
2022/12/13 06:54:03;;;;;;;22.55;11.60;;;;;;;4.23;47.40;101040.25;5060669;28;20055;-66
2022/12/13 06:56:32;;;;;;;21.17;11.00;;;;;;;4.13;48.08;101031.66;5062456;28;20062;-67
2022/12/13 06:59:00;;;;;;;22.17;11.88;;;;;;;3.93;48.53;101026.78;5057686;28;20059;-66
2022/12/13 07:01:30;;;;;;;21.85;12.25;;;;;;;3.74;49.21;101032.53;5055052;28;20049;-66
2022/12/13 07:04:05;;;;;;;24.08;11.88;;;;;;;3.58;49.55;101043.22;5053749;28;20048;-69
2022/12/13 07:06:52;;;;;;;26.48;11.82;;;;;;;3.42;49.52;101046.78;5054637;28;20049;-64
2022/12/13 07:09:20;;;;;;;25.73;13.43;;;;;;;3.32;50.09;101030.22;5059727;28;20087;-67
2022/12/13 07:11:48;;;;;;;23.05;11.65;;;;;;;3.24;50.00;101038.19;5062326;28;20079;-66
2022/12/13 07:14:19;;;;;;;22.77;12.38;;;;;;;3.16;49.73;101040.88;5061003;28;20073;-67
2022/12/13 07:16:48;;;;;;;22.10;12.48;;;;;;;3.05;50.16;101042.06;5061574;28;20057;-67
2022/12/13 07:19:16;;;;;;;23.60;13.50;;;;;;;2.82;50.51;101028.63;5060192;28;20049;-67
2022/12/13 07:21:51;;;;;;;27.75;13.00;;;;;;;2.78;50.84;101029.13;5050757;28;20052;-68
2022/12/13 07:24:19;;;;;;;24.88;14.00;;;;;;;2.76;51.25;101020.50;5059706;28;20052;-66
2022/12/13 07:26:46;;;;;;;25.90;13.13;;;;;;;2.74;51.27;101023.31;5046662;28;20128;-66
2022/12/13 07:29:14;;;;;;;23.55;13.35;;;;;;;2.72;51.23;101027.97;5049493;28;20121;-67
2022/12/13 07:31:50;;;;;;;24.67;13.32;;;;;;;2.70;51.78;101031.78;5061679;28;20063;-67
2022/12/13 07:34:18;;;;;;;29.30;13.63;;;;;;;2.69;51.09;101038.09;5054162;28;20056;-66
2022/12/13 07:36:46;;;;;;;26.15;12.75;;;;;;;2.66;51.55;101041.91;5061311;28;20057;-67
2022/12/13 07:39:14;;;;;;;23.10;13.02;;;;;;;2.62;51.72;101035.28;5048552;28;20081;-68
2022/12/13 07:41:41;;;;;;;22.27;12.35;;;;;;;2.59;52.03;101039.09;5060539;28;20048;-68
2022/12/13 07:44:09;;;;;;;23.73;12.68;;;;;;;2.58;51.99;101047.22;5057731;28;20049;-67
2022/12/13 07:46:37;;;;;;;23.90;13.55;;;;;;;2.55;51.66;101043.06;5061474;28;20052;-67
2022/12/13 07:49:06;;;;;;;28.92;14.68;;;;;;;2.54;51.65;101044.06;5059954;28;20063;-67
2022/12/13 07:51:34;;;;;;;24.77;13.93;;;;;;;2.54;52.28;101053.84;5042786;28;20083;-67
2022/12/13 07:54:02;;;;;;;26.65;15.15;;;;;;;2.51;51.71;101055.00;5049096;28;20132;-64
2022/12/13 07:56:33;;;;;;;24.27;13.43;;;;;;;2.52;52.21;101055.81;5051842;28;20049;-63
2022/12/13 07:59:01;;;;;;;28.65;13.82;;;;;;;2.49;52.01;101064.94;5061416;28;20045;-63
2022/12/13 08:01:33;;;;;;;27.27;14.27;;;;;;;2.47;52.43;101056.31;5062333;28;20064;-63
2022/12/13 08:04:01;;;;;;;26.85;13.57;;;;;;;2.48;52.41;101067.75;5061007;28;20080;-63
2022/12/13 08:06:35;;;;;;;24.42;14.15;;;;;;;2.47;51.97;101058.97;5054391;28;20053;-63
2022/12/13 08:09:04;;;;;;;25.55;14.15;;;;;;;2.43;51.95;101054.97;5062523;28;20052;-63
2022/12/13 08:11:32;;;;;;;25.52;14.30;;;;;;;2.44;52.60;101058.47;5057296;28;20102;-63
2022/12/13 08:14:00;;;;;;;25.02;13.63;;;;;;;2.42;52.31;101057.78;5062664;28;20059;-64
2022/12/13 08:16:27;;;;;;;25.38;13.95;;;;;;;2.41;52.42;101053.50;5046059;28;20053;-64
2022/12/13 08:18:57;;;;;;;26.67;13.75;;;;;;;2.40;52.34;101055.31;5044587;28;20049;-64
2022/12/13 08:21:35;;;;;;;30.38;14.85;;;;;;;2.40;52.48;101051.81;5050404;28;20388;-64
2022/12/13 08:24:23;;;;;;;28.50;15.38;;;;;;;2.38;52.48;101059.13;5062116;28;20434;-64
2022/12/13 08:26:51;;;;;;;26.42;14.32;;;;;;;2.40;52.42;101060.63;5052047;28;20056;-64
2022/12/13 08:29:19;;;;;;;25.00;15.25;;;;;;;2.37;52.54;101063.59;5058862;28;20143;-64
2022/12/13 08:32:00;;;;;;;27.40;15.40;;;;;;;2.35;52.73;101065.56;5057405;28;20053;-64
2022/12/13 08:34:28;;;;;;;29.13;13.85;;;;;;;2.39;52.64;101068.72;5051580;28;20501;-64
2022/12/13 08:36:57;;;;;;;26.63;15.32;;;;;;;2.40;52.26;101067.75;5064263;28;20129;-63
2022/12/13 08:39:29;;;;;;;27.45;15.48;;;;;;;2.36;52.35;101066.41;5059439;28;20083;-63
2022/12/13 08:42:02;;;;;;;33.28;17.73;;;;;;;2.38;52.60;101072.38;5056446;28;20049;-63
2022/12/13 08:44:46;;;;;;;29.60;16.08;;;;;;;2.36;52.25;101063.75;5053867;28;20071;-64
2022/12/13 08:47:14;;;;;;;26.48;14.25;;;;;;;2.39;52.81;101066.91;5050861;28;20525;-63
2022/12/13 08:49:53;;;;;;;25.33;15.30;;;;;;;2.52;52.62;101069.91;5058535;28;20057;-64
2022/12/13 08:52:23;;;;;;;30.75;16.05;;;;;;;2.68;52.46;101073.56;5057724;28;20055;-63
2022/12/13 08:54:51;;;;;;;28.33;15.43;;;;;;;2.84;51.29;101070.94;5051011;28;20188;-64
2022/12/13 08:57:18;;;;;;;29.52;15.52;;;;;;;2.99;51.48;101079.88;5052126;28;20049;-64
2022/12/13 08:59:46;;;;;;;31.45;16.15;;;;;;;3.16;51.35;101081.53;5051769;28;20060;-64
2022/12/13 09:02:15;;;;;;;26.33;14.90;;;;;;;3.32;50.73;101087.81;5059275;28;20053;-64
2022/12/13 09:04:43;;;;;;;28.00;13.98;;;;;;;3.35;50.27;101090.97;5048536;28;20048;-64
2022/12/13 09:07:11;;;;;;;33.90;16.02;;;;;;;3.29;50.23;101081.03;5064130;28;20163;-64
2022/12/13 09:09:40;;;;;;;25.02;15.23;;;;;;;3.20;50.38;101077.53;5065010;28;20048;-64
2022/12/13 09:12:07;;;;;;;29.35;16.17;;;;;;;3.12;50.95;101087.34;5065349;28;20049;-64
2022/12/13 09:14:55;;;;;;;26.90;14.32;;;;;;;2.99;51.13;101085.19;5065946;28;20045;-64
2022/12/13 09:17:30;;;;;;;31.65;16.77;;;;;;;2.90;51.92;101079.06;5059022;28;20053;-62
2022/12/13 09:20:06;;;;;;;27.10;15.27;;;;;;;2.85;51.91;101080.56;5066399;28;20053;-63
2022/12/13 09:22:54;;;;;;;25.08;15.18;;;;;;;2.82;52.32;101089.69;5067551;28;20053;-63
2022/12/13 09:25:31;;;;;;;30.70;16.73;;;;;;;2.79;52.32;101094.47;5060639;28;20041;-62
2022/12/13 09:28:05;;;;;;;27.40;15.50;;;;;;;2.75;52.56;101082.53;5067236;28;20099;-63
2022/12/13 09:30:33;;;;;;;27.83;15.45;;;;;;;2.72;52.66;101083.69;5067074;28;20107;-63
2022/12/13 09:33:01;;;;;;;31.23;16.77;;;;;;;2.71;52.90;101079.38;5064958;28;20135;-63
2022/12/13 09:35:49;;;;;;;30.30;15.80;;;;;;;2.69;52.83;101088.50;5055961;28;20596;-63
2022/12/13 09:38:16;;;;;;;29.67;16.55;;;;;;;2.66;52.59;101088.84;5056793;28;20041;-63
2022/12/13 09:40:49;;;;;;;28.30;15.70;;;;;;;2.63;52.94;101089.16;5065290;28;20169;-62
2022/12/13 09:43:29;;;;;;;27.00;16.20;;;;;;;2.60;52.95;101080.53;5067071;28;20049;-64
2022/12/13 09:46:01;;;;;;;30.42;15.82;;;;;;;2.59;53.08;101081.53;5065855;28;20394;-64
2022/12/13 09:48:29;;;;;;;29.35;16.25;;;;;;;2.59;53.25;101084.19;5059541;28;20115;-64
2022/12/13 09:51:02;;;;;;;27.98;16.58;;;;;;;2.53;53.56;101078.72;5065610;28;20052;-64
2022/12/13 09:53:50;;;;;;;32.78;17.83;;;;;;;2.58;53.16;101082.53;5066826;28;20052;-62
2022/12/13 09:56:22;;;;;;;30.83;16.52;;;;;;;2.57;53.53;101086.16;5059300;28;20072;-63
2022/12/13 09:58:52;;;;;;;31.52;17.83;;;;;;;2.56;53.09;101073.91;5064561;28;20101;-63
2022/12/13 10:01:20;;;;;;;32.65;17.90;;;;;;;2.54;53.74;101075.88;5066230;28;20059;-63
2022/12/13 10:03:53;;;;;;;33.33;17.25;;;;;;;2.55;53.50;101071.41;5062462;28;20060;-63
2022/12/13 10:06:23;;;;;;;33.60;18.40;;;;;;;2.55;53.66;101074.06;5063871;28;20574;-63
2022/12/13 10:08:53;;;;;;;32.63;18.45;;;;;;;2.55;53.56;101077.53;5063763;28;20041;-63
2022/12/13 10:11:28;;;;;;;28.40;16.20;;;;;;;2.57;53.55;101069.44;5062282;28;20114;-63
2022/12/13 10:14:04;;;;;;;32.90;17.00;;;;;;;2.56;53.61;101059.81;5057162;28;20049;-63
2022/12/13 10:16:42;;;;;;;35.03;16.73;;;;;;;2.54;53.60;101056.50;5065120;28;20057;-62
2022/12/13 10:19:16;;;;;;;30.40;17.23;;;;;;;2.56;53.84;101060.63;5052670;28;20045;-62
2022/12/13 10:21:58;;;;;;;33.45;18.70;;;;;;;2.58;54.36;101063.94;5066524;28;20048;-63
2022/12/13 10:24:31;;;;;;;32.65;17.38;;;;;;;2.58;53.85;101063.13;5066012;28;20056;-63
2022/12/13 10:27:12;;;;;;;38.42;19.73;;;;;;;2.60;54.11;101061.97;5053813;28;20049;-63
2022/12/13 10:30:04;;;;;;;34.55;17.80;;;;;;;2.60;53.84;101053.19;5053698;28;20064;-63
2022/12/13 10:32:34;;;;;;;31.42;17.65;;;;;;;2.61;53.99;101036.25;5064475;28;20060;-62
2022/12/13 10:35:20;;;;;;;33.10;18.63;;;;;;;2.63;54.25;101038.75;5059873;28;20044;-63
2022/12/13 10:37:48;;;;;;;34.58;18.27;;;;;;;2.64;54.02;101032.44;5054903;28;20467;-63
2022/12/13 10:40:30;;;;;;;32.10;17.70;;;;;;;2.63;53.75;101028.13;5061594;28;20053;-63
2022/12/13 10:43:13;;;;;;;31.63;17.45;;;;;;;2.65;54.39;101031.47;5056725;28;20054;-63
2022/12/13 10:45:41;;;;;;;31.33;16.92;;;;;;;2.64;54.27;101033.28;5064477;28;20067;-63
2022/12/13 10:48:20;;;;;;;32.75;17.05;;;;;;;2.68;54.54;101033.78;5061357;28;20072;-63
2022/12/13 10:51:01;;;;;;;31.15;18.15;;;;;;;2.69;54.53;101032.78;5062504;28;20045;-63
2022/12/13 10:53:33;;;;;;;31.42;18.08;;;;;;;2.68;54.49;101024.00;5065318;28;20073;-62
2022/12/13 10:56:02;;;;;;;33.97;16.45;;;;;;;2.69;54.69;101016.88;5064670;28;20068;-63
2022/12/13 10:58:38;;;;;;;32.53;18.38;;;;;;;2.70;54.66;101018.53;5063565;28;20049;-63
2022/12/13 11:01:20;;;;;;;33.42;16.25;;;;;;;2.71;54.30;101006.91;5063130;28;20049;-63
2022/12/13 11:03:58;;;;;;;32.30;17.55;;;;;;;2.72;54.49;101009.41;5057393;28;20045;-62
2022/12/13 11:06:41;;;;;;;29.85;16.38;;;;;;;2.84;54.24;101000.09;5058313;28;20063;-63
2022/12/13 11:09:14;;;;;;;30.30;17.00;;;;;;;3.02;54.16;100996.41;5058330;28;20148;-62
2022/12/13 11:11:51;;;;;;;36.90;18.90;;;;;;;3.22;52.96;100993.22;5056494;28;20045;-63
2022/12/13 11:14:29;;;;;;;29.63;16.35;;;;;;;3.41;52.72;101001.78;5064883;28;20079;-61
2022/12/13 11:17:08;;;;;;;30.42;16.48;;;;;;;3.58;52.92;100998.03;4835837;28;10001109;-64
2022/12/13 11:19:40;;;;;;;30.50;16.17;;;;;;;3.75;52.40;100989.00;5053041;28;20274;-64
2022/12/13 11:22:10;;;;;;;29.98;16.65;;;;;;;3.90;52.08;100984.59;5043765;28;20096;-64
2022/12/13 11:24:42;;;;;;;30.83;17.10;;;;;;;4.05;51.37;100987.34;5058574;28;20072;-64
2022/12/13 11:27:46;;;;;;;30.17;16.45;;;;;;;4.26;51.10;100994.69;5048124;28;20166;-62
2022/12/13 11:30:36;;;;;;;29.17;17.27;;;;;;;4.45;49.98;100988.06;5054538;28;20049;-64
2022/12/13 11:33:21;;;;;;;28.58;16.40;;;;;;;4.52;50.39;100983.66;5061566;28;20513;-65
2022/12/13 11:36:03;;;;;;;29.52;16.55;;;;;;;4.63;49.82;100985.09;5060161;28;20482;-63
2022/12/13 11:38:38;;;;;;;33.05;17.48;;;;;;;4.67;49.48;100976.56;5051491;28;20048;-63
2022/12/13 11:41:12;;;;;;;33.08;16.80;;;;;;;4.68;50.08;100978.22;5054994;28;20113;-63
2022/12/13 11:44:02;;;;;;;32.35;17.02;;;;;;;4.72;49.45;100973.34;5048040;28;20097;-63
2022/12/13 11:46:40;;;;;;;30.20;16.83;;;;;;;4.76;49.68;100978.13;5058166;28;20049;-62